createdAt,value
2019-03-19T00:02:13.342Z,0.59
2019-03-19T00:04:42.359Z,0.59
2019-03-19T00:07:11.398Z,0.57
2019-03-19T00:09:40.395Z,0.53
2019-03-19T00:12:09.371Z,0.57
2019-03-19T00:14:38.408Z,0.57
2019-03-19T00:17:07.426Z,0.48
2019-03-19T00:19:36.403Z,0.48
2019-03-19T00:22:07.132Z,0.64
2019-03-19T00:24:36.123Z,0.64
2019-03-19T00:27:05.300Z,0.58
2019-03-19T00:29:34.309Z,0.69
2019-03-19T00:32:03.412Z,0.62
2019-03-19T00:34:32.459Z,0.62
2019-03-19T00:37:01.536Z,0.62
2019-03-19T00:39:30.543Z,0.67
2019-03-19T00:41:59.653Z,0.78
2019-03-19T00:44:28.634Z,0.78
2019-03-19T00:46:57.688Z,0.72
2019-03-19T00:49:26.650Z,0.60
2019-03-19T00:51:55.652Z,0.60
2019-03-19T00:54:24.692Z,0.61
2019-03-19T00:56:53.814Z,0.52
2019-03-19T00:59:22.835Z,0.52
2019-03-19T01:01:51.941Z,0.52
2019-03-19T01:04:21.022Z,0.51
2019-03-19T01:06:50.044Z,0.51
2019-03-19T01:09:19.115Z,0.59
2019-03-19T01:11:48.132Z,0.59
2019-03-19T01:14:17.160Z,0.61
2019-03-19T01:16:46.200Z,0.61
2019-03-19T01:19:15.283Z,0.43
2019-03-19T01:21:44.291Z,0.42
2019-03-19T01:24:13.280Z,0.53
2019-03-19T01:26:42.300Z,0.53
2019-03-19T01:29:11.289Z,0.52
2019-03-19T01:31:40.352Z,0.53
2019-03-19T01:34:09.406Z,0.60
2019-03-19T01:36:39.682Z,0.54
2019-03-19T01:39:08.946Z,0.47
2019-03-19T01:41:37.969Z,0.47
2019-03-19T01:44:07.048Z,-0.18
2019-03-19T01:46:36.014Z,0.15
2019-03-19T01:49:05.163Z,0.34
2019-03-19T01:51:34.188Z,0.38
2019-03-19T01:54:03.190Z,0.38
2019-03-19T01:56:32.253Z,0.38
2019-03-19T01:59:01.277Z,0.28
2019-03-19T02:01:30.284Z,0.26
2019-03-19T02:03:59.407Z,0.20
2019-03-19T02:06:28.521Z,0.20
2019-03-19T02:08:57.506Z,-0.07
2019-03-19T02:11:26.520Z,0.18
2019-03-19T02:13:56.102Z,0.19
2019-03-19T02:16:25.158Z,0.19
2019-03-19T02:18:54.177Z,0.25
2019-03-19T02:21:23.165Z,-0.03
2019-03-19T02:23:52.155Z,-0.03
2019-03-19T02:26:21.161Z,0.07
2019-03-19T02:28:50.212Z,0.07
2019-03-19T02:31:19.222Z,0.17
2019-03-19T02:33:49.708Z,0.17
2019-03-19T02:36:18.716Z,0.11
2019-03-19T02:38:47.786Z,0.15
2019-03-19T02:41:16.804Z,0.11
2019-03-19T02:43:45.882Z,0.11
2019-03-19T02:46:14.951Z,0.10
2019-03-19T02:48:43.997Z,0.04
2019-03-19T02:51:13.086Z,0.19
2019-03-19T02:53:42.104Z,0.26
2019-03-19T02:56:11.125Z,0.03
2019-03-19T02:58:40.156Z,-0.05
2019-03-19T03:01:09.182Z,-0.09
2019-03-19T03:03:38.220Z,-0.05
2019-03-19T03:06:07.390Z,-0.03
2019-03-19T03:08:36.516Z,-0.03
2019-03-19T03:11:05.602Z,0.04
2019-03-19T03:13:34.603Z,0.04
2019-03-19T03:16:03.618Z,0.27
2019-03-19T03:18:32.636Z,-0.01
2019-03-19T03:21:01.832Z,-0.02
2019-03-19T03:23:30.825Z,-0.13
2019-03-19T03:25:59.875Z,-0.13
2019-03-19T03:28:28.840Z,-0.05
2019-03-19T03:30:57.833Z,0.11
2019-03-19T03:33:26.875Z,-0.16
2019-03-19T03:35:55.893Z,-0.30
2019-03-19T03:38:24.911Z,-0.24
2019-03-19T03:40:54.000Z,-0.22
2019-03-19T03:43:23.002Z,-0.22
2019-03-19T03:45:51.978Z,-0.14
2019-03-19T03:48:20.995Z,-0.38
2019-03-19T03:50:50.179Z,-0.42
2019-03-19T03:53:19.286Z,-0.28
2019-03-19T03:55:48.505Z,-0.28
2019-03-19T03:58:17.619Z,-0.10
2019-03-19T04:00:46.769Z,-0.12
2019-03-19T04:03:15.851Z,-0.08
2019-03-19T04:05:46.218Z,-0.08
2019-03-19T04:08:17.388Z,-0.09
2019-03-19T04:10:46.495Z,-0.09
2019-03-19T04:13:15.628Z,-0.19
2019-03-19T04:15:44.610Z,-0.05
2019-03-19T04:18:13.713Z,-0.04
2019-03-19T04:20:42.784Z,-0.03
2019-03-19T04:23:13.840Z,-0.03
2019-03-19T04:25:42.888Z,0.02
2019-03-19T04:28:11.905Z,0.00
2019-03-19T04:30:40.939Z,0.09
2019-03-19T04:33:09.926Z,0.09
2019-03-19T04:35:38.973Z,-0.03
2019-03-19T04:38:07.979Z,-0.04
2019-03-19T04:40:36.996Z,-0.04
2019-03-19T04:43:06.058Z,-0.09
2019-03-19T04:45:35.149Z,-0.18
2019-03-19T04:48:04.298Z,-0.26
2019-03-19T04:50:33.328Z,-0.26
2019-03-19T04:53:02.312Z,-0.55
2019-03-19T04:55:31.350Z,-0.47
2019-03-19T04:58:00.380Z,-0.45
2019-03-19T05:00:29.433Z,-0.45
2019-03-19T05:02:58.560Z,-0.38
2019-03-19T05:05:27.636Z,-0.38
2019-03-19T05:07:58.685Z,-0.29
2019-03-19T05:10:27.711Z,-0.29
2019-03-19T05:12:56.871Z,-0.69
2019-03-19T05:15:25.912Z,-0.52
2019-03-19T05:17:54.928Z,-0.51
2019-03-19T05:20:23.912Z,-0.52
2019-03-19T05:22:52.902Z,-0.53
2019-03-19T05:25:22.863Z,-0.61
2019-03-19T05:27:51.967Z,-0.48
2019-03-19T05:30:21.069Z,-0.58
2019-03-19T05:32:50.105Z,-0.54
2019-03-19T05:35:19.301Z,-0.48
2019-03-19T05:37:48.386Z,-0.51
2019-03-19T05:40:17.595Z,-0.36
2019-03-19T05:42:46.580Z,-0.43
2019-03-19T05:45:15.767Z,-0.38
2019-03-19T05:47:45.067Z,-0.21
2019-03-19T05:50:14.312Z,-0.21
2019-03-19T05:52:43.414Z,-0.32
2019-03-19T05:55:12.563Z,-0.18
2019-03-19T05:57:49.481Z,-0.08
2019-03-19T06:00:13.485Z,-0.38
2019-03-19T06:02:42.584Z,-0.30
2019-03-19T06:05:11.904Z,-0.36
2019-03-19T06:07:41.028Z,-0.21
2019-03-19T06:10:10.274Z,-0.40
2019-03-19T06:12:39.418Z,-0.39
2019-03-19T06:15:08.639Z,-0.39
2019-03-19T06:17:37.726Z,-0.31
2019-03-19T06:20:07.193Z,-0.28
2019-03-19T06:22:36.320Z,-0.26
2019-03-19T06:25:06.681Z,-0.41
2019-03-19T06:27:35.834Z,-0.28
2019-03-19T06:30:06.479Z,0.12
2019-03-19T06:32:35.492Z,0.40
2019-03-19T06:35:05.054Z,0.54
2019-03-19T06:37:34.098Z,0.54
2019-03-19T06:40:03.120Z,0.74
2019-03-19T06:42:32.134Z,0.74
2019-03-19T06:45:01.170Z,0.65
2019-03-19T06:47:30.174Z,0.65
2019-03-19T06:49:59.183Z,0.82
2019-03-19T06:52:28.212Z,0.95
2019-03-19T06:54:57.231Z,1.44
2019-03-19T06:57:26.279Z,1.44
2019-03-19T06:59:55.302Z,2.10
2019-03-19T07:02:24.334Z,2.44
2019-03-19T07:04:53.343Z,2.53
2019-03-19T07:07:22.364Z,2.53
2019-03-19T07:09:51.424Z,2.83
2019-03-19T07:12:20.522Z,2.90
2019-03-19T07:14:49.551Z,2.89
2019-03-19T07:17:18.590Z,3.11
2019-03-19T07:19:47.597Z,3.32
2019-03-19T07:22:16.613Z,3.19
2019-03-19T07:24:48.010Z,3.52
2019-03-19T07:27:16.347Z,3.40
2019-03-19T07:29:45.359Z,3.62
2019-03-19T07:32:14.473Z,3.71
2019-03-19T07:34:43.493Z,3.67
2019-03-19T07:37:12.517Z,3.79
2019-03-19T07:39:41.536Z,3.79
2019-03-19T07:42:10.584Z,3.86
2019-03-19T07:44:39.597Z,3.83
2019-03-19T07:47:08.570Z,3.67
2019-03-19T07:49:37.576Z,3.77
2019-03-19T07:52:06.627Z,3.85
2019-03-19T07:54:35.740Z,3.71
2019-03-19T07:57:04.737Z,3.71
2019-03-19T07:59:33.726Z,3.94
2019-03-19T08:02:02.751Z,3.94
2019-03-19T08:04:31.810Z,4.02
2019-03-19T08:07:00.869Z,4.06
2019-03-19T08:09:30.192Z,4.07
2019-03-19T08:11:59.168Z,4.07
2019-03-19T08:14:28.197Z,4.27
2019-03-19T08:16:58.867Z,4.29
2019-03-19T08:19:27.845Z,4.48
2019-03-19T08:21:56.873Z,4.48
2019-03-19T08:24:25.852Z,4.33
2019-03-19T08:26:54.917Z,4.23
2019-03-19T08:29:23.895Z,4.47
2019-03-19T08:31:53.259Z,4.67
2019-03-19T08:34:22.553Z,4.72
2019-03-19T08:36:51.630Z,4.70
2019-03-19T08:39:20.780Z,4.77
2019-03-19T08:41:49.818Z,4.67
2019-03-19T08:44:27.450Z,4.75
2019-03-19T08:46:49.665Z,5.07
2019-03-19T08:49:18.685Z,5.11
2019-03-19T08:51:47.702Z,5.17
2019-03-19T08:54:16.715Z,5.23
2019-03-19T08:56:45.795Z,5.39
2019-03-19T08:59:14.796Z,5.49
2019-03-19T09:01:43.812Z,5.59
2019-03-19T09:04:13.881Z,5.59
2019-03-19T09:06:42.913Z,5.86
2019-03-19T09:09:12.051Z,5.66
2019-03-19T09:11:41.085Z,5.85
2019-03-19T09:14:10.225Z,5.97
2019-03-19T09:16:39.346Z,5.83
2019-03-19T09:19:08.368Z,6.18
2019-03-19T09:21:37.382Z,6.36
2019-03-19T09:24:06.524Z,6.55
2019-03-19T09:26:35.557Z,6.96
2019-03-19T09:29:04.724Z,7.11
2019-03-19T09:31:33.827Z,7.01
2019-03-19T09:34:02.831Z,7.72
2019-03-19T09:36:31.999Z,7.71
2019-03-19T09:39:01.155Z,7.79
2019-03-19T09:41:30.158Z,7.79
2019-03-19T09:43:59.232Z,8.73
2019-03-19T09:46:28.229Z,8.76
2019-03-19T09:48:57.297Z,9.05
2019-03-19T09:51:28.355Z,8.93
2019-03-19T09:53:57.365Z,9.14
2019-03-19T09:56:27.866Z,8.99
2019-03-19T09:58:56.942Z,9.78
2019-03-19T10:01:25.940Z,9.33
2019-03-19T10:03:54.968Z,10.14
2019-03-19T10:06:24.015Z,9.83
2019-03-19T10:08:53.005Z,10.16
2019-03-19T10:11:22.091Z,10.51
2019-03-19T10:13:51.113Z,10.71
2019-03-19T10:16:20.110Z,10.18
2019-03-19T10:18:49.191Z,10.86
2019-03-19T10:21:18.232Z,11.10
2019-03-19T10:23:47.256Z,10.61
2019-03-19T10:26:16.406Z,10.80
2019-03-19T10:28:45.488Z,10.80
2019-03-19T10:31:14.682Z,11.63
2019-03-19T10:33:43.715Z,10.74
2019-03-19T10:36:12.771Z,11.64
2019-03-19T10:38:41.799Z,11.57
2019-03-19T10:41:10.880Z,10.93
2019-03-19T10:43:39.977Z,10.94
2019-03-19T10:46:11.308Z,11.05
2019-03-19T10:48:40.343Z,10.82
2019-03-19T10:51:09.372Z,10.54
2019-03-19T10:53:38.464Z,10.77
2019-03-19T10:56:07.542Z,10.63
2019-03-19T10:58:36.548Z,10.95
2019-03-19T11:01:07.176Z,10.96
2019-03-19T11:03:36.275Z,10.92
2019-03-19T11:06:05.351Z,10.79
2019-03-19T11:08:34.346Z,10.31
2019-03-19T11:11:03.765Z,10.46
2019-03-19T11:13:32.846Z,10.42
2019-03-19T11:16:01.869Z,10.58
2019-03-19T11:18:30.830Z,10.55
2019-03-19T11:20:59.938Z,10.80
2019-03-19T11:23:28.951Z,10.95
2019-03-19T11:25:57.964Z,11.34
2019-03-19T11:28:26.972Z,11.26
2019-03-19T11:30:56.082Z,11.43
2019-03-19T11:33:26.823Z,10.55
2019-03-19T11:35:55.791Z,11.05
2019-03-19T11:38:24.786Z,11.55
2019-03-19T11:40:53.821Z,10.75
2019-03-19T11:43:22.850Z,11.28
2019-03-19T11:45:51.997Z,12.31
2019-03-19T11:48:20.970Z,11.98
2019-03-19T11:50:49.974Z,12.81
2019-03-19T11:53:19.006Z,12.29
2019-03-19T11:55:48.069Z,12.03
2019-03-19T11:58:17.213Z,12.07
2019-03-19T12:00:49.273Z,12.07
2019-03-19T12:03:18.354Z,12.33
2019-03-19T12:05:47.368Z,12.53
2019-03-19T12:08:16.409Z,12.98
2019-03-19T12:10:45.491Z,12.72
2019-03-19T12:13:14.611Z,13.51
2019-03-19T12:15:43.627Z,13.25
2019-03-19T12:18:12.639Z,14.08
2019-03-19T12:20:41.736Z,13.68
2019-03-19T12:23:10.821Z,13.46
2019-03-19T12:25:39.813Z,13.51
2019-03-19T12:28:08.844Z,13.92
2019-03-19T12:30:37.931Z,13.46
2019-03-19T12:33:08.540Z,13.19
2019-03-19T12:35:37.520Z,13.51
2019-03-19T12:38:06.657Z,13.51
2019-03-19T12:40:37.160Z,12.85
2019-03-19T12:43:06.784Z,13.48
2019-03-19T12:45:35.948Z,13.65
2019-03-19T12:48:05.359Z,12.99
2019-03-19T12:50:34.368Z,12.81
2019-03-19T12:53:03.518Z,11.90
2019-03-19T12:55:32.540Z,11.90
2019-03-19T12:58:01.691Z,13.88
2019-03-19T13:00:34.772Z,13.74
2019-03-19T13:03:01.655Z,12.91
2019-03-19T13:05:30.662Z,13.53
2019-03-19T13:07:59.782Z,13.91
2019-03-19T13:10:28.783Z,13.92
2019-03-19T13:12:57.855Z,12.40
2019-03-19T13:15:27.073Z,12.40
2019-03-19T13:17:56.071Z,12.38
2019-03-19T13:20:25.299Z,12.29
2019-03-19T13:26:05.903Z,12.72
2019-03-19T13:28:34.956Z,13.81
2019-03-19T13:31:04.059Z,13.56
2019-03-19T13:33:33.084Z,13.84
2019-03-19T13:36:02.150Z,14.21
2019-03-19T13:38:31.154Z,14.41
2019-03-19T13:41:00.146Z,14.42
2019-03-19T13:43:29.183Z,14.76
2019-03-19T13:45:58.233Z,14.81
2019-03-19T13:48:27.214Z,14.97
2019-03-19T13:50:56.246Z,14.26
2019-03-19T13:53:25.243Z,14.36
2019-03-19T13:55:54.313Z,13.45
2019-03-19T13:58:27.287Z,14.49
2019-03-19T14:00:56.383Z,14.52
2019-03-19T14:03:25.422Z,15.00
2019-03-19T14:05:54.506Z,13.59
2019-03-19T14:08:24.932Z,14.09
2019-03-19T14:10:54.348Z,14.23
2019-03-19T14:13:23.797Z,14.02
2019-03-19T14:15:52.784Z,14.02
2019-03-19T14:18:21.809Z,13.40
2019-03-19T14:20:50.834Z,14.11
2019-03-19T14:23:19.908Z,14.19
2019-03-19T14:25:49.490Z,14.88
2019-03-19T14:28:19.666Z,14.88
2019-03-19T14:30:48.907Z,15.32
2019-03-19T14:33:17.913Z,13.98
2019-03-19T14:35:48.457Z,13.68
2019-03-19T14:38:17.450Z,14.12
2019-03-19T14:40:46.606Z,12.87
2019-03-19T14:43:15.630Z,12.44
2019-03-19T14:45:44.730Z,12.87
2019-03-19T14:48:13.809Z,12.87
2019-03-19T14:50:42.888Z,12.58
2019-03-19T14:53:13.220Z,12.94
2019-03-19T14:55:42.348Z,12.48
2019-03-19T14:58:11.373Z,12.65
2019-03-19T15:00:40.465Z,12.34
2019-03-19T15:03:09.459Z,12.25
2019-03-19T15:05:38.569Z,12.41
2019-03-19T15:08:07.623Z,12.55
2019-03-19T15:10:39.008Z,12.80
2019-03-19T15:13:08.060Z,12.53
2019-03-19T15:15:37.085Z,12.15
2019-03-19T15:18:08.476Z,12.26
2019-03-19T15:20:37.489Z,12.04
2019-03-19T15:23:06.667Z,12.57
2019-03-19T15:25:36.885Z,12.30
2019-03-19T15:28:06.136Z,11.91
2019-03-19T15:30:40.177Z,11.91
2019-03-19T15:33:09.199Z,11.86
2019-03-19T15:35:38.172Z,12.13
2019-03-19T15:38:07.267Z,12.13
2019-03-19T15:40:37.054Z,12.21
2019-03-19T15:43:06.131Z,11.80
2019-03-19T15:45:35.268Z,11.80
2019-03-19T15:48:04.367Z,11.83
2019-03-19T15:50:33.451Z,11.62
2019-03-19T15:53:02.500Z,11.81
2019-03-19T15:55:31.570Z,11.47
2019-03-19T15:58:00.653Z,11.74
2019-03-19T16:00:29.738Z,11.37
2019-03-19T16:02:58.762Z,11.37
2019-03-19T16:05:27.795Z,12.04
2019-03-19T16:07:56.776Z,11.60
2019-03-19T16:10:25.878Z,11.36
2019-03-19T16:12:54.891Z,11.32
2019-03-19T16:15:24.156Z,11.35
2019-03-19T16:17:53.188Z,11.40
2019-03-19T16:20:22.365Z,11.46
2019-03-19T16:22:51.510Z,11.37
2019-03-19T16:25:22.126Z,11.59
2019-03-19T16:27:51.111Z,11.78
2019-03-19T16:30:20.253Z,11.78
2019-03-19T16:32:49.434Z,11.20
2019-03-19T16:35:18.587Z,11.31
2019-03-19T16:37:47.716Z,11.10
2019-03-19T16:40:17.827Z,11.53
2019-03-19T16:42:46.955Z,11.36
2019-03-19T16:45:18.087Z,12.11
2019-03-19T16:47:47.017Z,11.94
2019-03-19T16:50:16.191Z,12.35
2019-03-19T16:52:45.176Z,12.15
2019-03-19T16:55:14.548Z,11.91
2019-03-19T16:57:43.750Z,11.72
2019-03-19T17:00:15.075Z,11.33
2019-03-19T17:02:44.104Z,11.85
2019-03-19T17:05:14.854Z,11.78
2019-03-19T17:07:44.020Z,11.82
2019-03-19T17:10:14.022Z,12.04
2019-03-19T17:12:43.130Z,11.55
2019-03-19T17:15:12.691Z,11.58
2019-03-19T17:17:41.869Z,11.58
2019-03-19T17:20:12.140Z,11.93
2019-03-19T17:22:41.480Z,11.57
2019-03-19T17:25:12.056Z,11.68
2019-03-19T17:27:41.138Z,11.68
2019-03-19T17:30:17.363Z,11.70
2019-03-19T17:32:46.611Z,11.84
2019-03-19T17:35:15.611Z,11.64
2019-03-19T17:37:44.636Z,11.64
2019-03-19T17:40:13.906Z,11.12
2019-03-19T17:42:42.938Z,10.68
2019-03-19T17:45:12.266Z,10.30
2019-03-19T17:47:41.314Z,10.28
2019-03-19T17:50:34.936Z,10.08
2019-03-19T17:53:04.021Z,10.01
2019-03-19T17:55:33.070Z,9.89
2019-03-19T17:58:02.068Z,9.65
2019-03-19T18:00:31.376Z,9.54
2019-03-19T18:03:04.699Z,9.42
2019-03-19T18:05:36.987Z,9.41
2019-03-19T18:08:07.720Z,9.40
2019-03-19T18:10:36.737Z,9.40
2019-03-19T18:13:06.752Z,9.34
2019-03-19T18:15:36.083Z,9.17
2019-03-19T18:18:05.353Z,9.06
2019-03-19T18:20:34.366Z,8.86
2019-03-19T18:23:03.701Z,8.86
2019-03-19T18:25:32.699Z,8.80
2019-03-19T18:28:01.722Z,8.69
2019-03-19T18:30:31.785Z,8.77
2019-03-19T18:33:00.867Z,8.92
2019-03-19T18:35:29.895Z,8.89
2019-03-19T18:37:59.049Z,8.89
2019-03-19T18:40:29.049Z,8.70
2019-03-19T18:42:58.390Z,8.50
2019-03-19T18:45:27.426Z,8.52
2019-03-19T18:47:56.503Z,8.52
2019-03-19T18:54:07.992Z,8.36
2019-03-19T18:56:37.002Z,8.36
2019-03-19T18:59:06.052Z,8.28
2019-03-19T19:01:35.067Z,8.22
2019-03-19T19:04:05.395Z,7.89
2019-03-19T19:06:34.437Z,7.89
2019-03-19T19:09:04.141Z,8.23
2019-03-19T19:11:33.241Z,8.23
2019-03-19T19:14:02.251Z,8.16
2019-03-19T19:16:31.440Z,7.89
2019-03-19T19:19:01.723Z,7.76
2019-03-19T19:21:31.362Z,7.76
2019-03-19T19:24:01.136Z,7.68
2019-03-19T19:26:30.213Z,7.59
2019-03-19T19:28:59.583Z,7.59
2019-03-19T19:31:28.716Z,7.50
2019-03-19T19:33:57.779Z,7.50
2019-03-19T19:36:26.782Z,7.43
2019-03-19T19:38:56.038Z,7.41
2019-03-19T19:41:25.133Z,7.29
2019-03-19T19:43:54.254Z,7.08
2019-03-19T19:46:23.307Z,7.33
2019-03-19T19:48:52.309Z,7.35
2019-03-19T19:51:23.203Z,7.37
2019-03-19T19:53:52.221Z,7.37
2019-03-19T19:56:21.274Z,7.20
2019-03-19T19:58:50.360Z,7.20
2019-03-19T20:01:21.760Z,7.02
2019-03-19T20:03:50.731Z,7.19
2019-03-19T20:06:19.887Z,7.07
2019-03-19T20:08:48.932Z,7.05
2019-03-19T20:11:18.002Z,7.18
2019-03-19T20:13:54.418Z,7.17
2019-03-19T20:16:23.504Z,7.10
2019-03-19T20:18:52.527Z,6.93
2019-03-19T20:21:22.647Z,6.93
2019-03-19T20:23:51.967Z,6.84
2019-03-19T20:26:21.051Z,6.64
2019-03-19T20:28:50.075Z,6.64
2019-03-19T20:31:20.193Z,6.60
2019-03-19T20:33:49.247Z,6.49
2019-03-19T20:36:18.505Z,6.53
2019-03-19T20:38:47.544Z,6.31
2019-03-19T20:41:16.621Z,6.26
2019-03-19T20:43:45.701Z,6.30
2019-03-19T20:46:14.702Z,6.51
2019-03-19T20:48:44.892Z,6.52
2019-03-19T20:51:13.981Z,6.34
2019-03-19T20:53:43.143Z,6.32
2019-03-19T20:56:12.219Z,6.18
2019-03-19T20:58:43.777Z,6.10
2019-03-19T21:01:11.972Z,6.11
2019-03-19T21:03:40.972Z,5.81
2019-03-19T21:06:10.075Z,5.81
2019-03-19T21:08:39.059Z,5.99
2019-03-19T21:11:08.062Z,6.00
2019-03-19T21:13:37.142Z,6.00
2019-03-19T21:16:08.629Z,6.06
2019-03-19T21:18:37.682Z,6.06
2019-03-19T21:21:06.747Z,5.93
2019-03-19T21:23:35.803Z,5.93
2019-03-19T21:26:04.878Z,5.92
2019-03-19T21:28:34.055Z,5.58
2019-03-19T21:31:03.049Z,5.65
2019-03-19T21:33:32.084Z,5.83
2019-03-19T21:36:01.258Z,5.83
2019-03-19T21:38:30.318Z,5.70
2019-03-19T21:40:59.516Z,5.81
2019-03-19T21:43:28.583Z,5.71
2019-03-19T21:45:57.724Z,5.66
2019-03-19T21:48:26.688Z,5.51
2019-03-19T21:50:55.735Z,5.51
2019-03-19T21:53:24.906Z,5.64
2019-03-19T21:55:53.909Z,5.67
2019-03-19T21:58:23.342Z,5.58
2019-03-19T22:00:52.760Z,5.34
2019-03-19T22:03:21.891Z,5.32
2019-03-19T22:05:50.939Z,5.50
2019-03-19T22:08:20.007Z,5.38
2019-03-19T22:10:49.120Z,5.38
2019-03-19T22:13:18.263Z,5.03
2019-03-19T22:15:47.346Z,5.21
2019-03-19T22:18:16.405Z,5.21
2019-03-19T22:20:45.465Z,5.31
2019-03-19T22:23:16.723Z,4.82
2019-03-19T22:25:45.803Z,5.09
2019-03-19T22:28:14.838Z,5.09
2019-03-19T22:30:43.907Z,5.06
2019-03-19T22:33:12.913Z,5.10
2019-03-19T22:35:42.017Z,4.92
2019-03-19T22:38:11.010Z,5.01
2019-03-19T22:40:40.074Z,5.10
2019-03-19T22:43:09.082Z,4.99
2019-03-19T22:45:38.176Z,4.93
2019-03-19T22:48:07.173Z,4.85
2019-03-19T22:50:36.190Z,4.99
2019-03-19T22:53:07.347Z,4.80
2019-03-19T22:55:36.344Z,4.70
2019-03-19T22:58:05.985Z,4.78
2019-03-19T23:00:47.215Z,4.78
2019-03-19T23:03:16.298Z,4.76
2019-03-19T23:05:48.308Z,4.92
2019-03-19T23:08:17.377Z,4.92
2019-03-19T23:10:46.467Z,4.80
2019-03-19T23:13:15.624Z,4.83
2019-03-19T23:15:44.763Z,4.83
2019-03-19T23:18:13.835Z,4.69
2019-03-19T23:20:42.933Z,4.76
2019-03-19T23:23:12.064Z,4.72
2019-03-19T23:25:41.147Z,4.59
2019-03-19T23:28:10.280Z,4.59
2019-03-19T23:30:39.412Z,4.49
2019-03-19T23:33:08.568Z,4.58
2019-03-19T23:35:37.782Z,4.41
2019-03-19T23:38:06.788Z,4.41
2019-03-19T23:40:35.935Z,4.39
2019-03-19T23:43:05.060Z,4.35
2019-03-19T23:45:34.071Z,4.47
2019-03-19T23:48:03.182Z,4.50
2019-03-19T23:50:32.189Z,4.58
2019-03-19T23:53:01.267Z,4.59
2019-03-19T23:55:30.326Z,4.59
2019-03-19T23:57:59.323Z,4.39
